sensor_id;sensor_type;location;lat;lon;timestamp;pressure;altitude;pressure_sealevel;temperature
33267;BMP180;19638;49.080;11.896;2023-01-15T00:03:02;95302.00;;;8.40
33267;BMP180;19638;49.080;11.896;2023-01-15T00:07:07;95297.00;;;8.40
33267;BMP180;19638;49.080;11.896;2023-01-15T00:11:10;95301.00;;;8.40
33267;BMP180;19638;49.080;11.896;2023-01-15T00:15:15;95292.00;;;8.40
33267;BMP180;19638;49.080;11.896;2023-01-15T00:19:20;95293.00;;;8.50
33267;BMP180;19638;49.080;11.896;2023-01-15T00:23:24;95286.00;;;8.40
33267;BMP180;19638;49.080;11.896;2023-01-15T00:27:43;95284.00;;;8.50
33267;BMP180;19638;49.080;11.896;2023-01-15T00:31:52;95289.00;;;8.50
33267;BMP180;19638;49.080;11.896;2023-01-15T00:36:02;95278.00;;;8.50
33267;BMP180;19638;49.080;11.896;2023-01-15T00:40:09;95274.00;;;8.50
33267;BMP180;19638;49.080;11.896;2023-01-15T00:44:17;95271.00;;;8.50
33267;BMP180;19638;49.080;11.896;2023-01-15T00:48:22;95277.00;;;8.50
33267;BMP180;19638;49.080;11.896;2023-01-15T00:52:27;95279.00;;;8.50
33267;BMP180;19638;49.080;11.896;2023-01-15T00:56:31;95268.00;;;8.50
33267;BMP180;19638;49.080;11.896;2023-01-15T01:00:39;95255.00;;;8.50
33267;BMP180;19638;49.080;11.896;2023-01-15T01:04:45;95254.00;;;8.50
33267;BMP180;19638;49.080;11.896;2023-01-15T01:08:52;95252.00;;;8.50
33267;BMP180;19638;49.080;11.896;2023-01-15T01:13:01;95254.00;;;8.50
33267;BMP180;19638;49.080;11.896;2023-01-15T01:17:04;95250.00;;;8.50
33267;BMP180;19638;49.080;11.896;2023-01-15T01:21:07;95251.00;;;8.50
33267;BMP180;19638;49.080;11.896;2023-01-15T01:25:15;95238.00;;;8.50
33267;BMP180;19638;49.080;11.896;2023-01-15T01:29:20;95246.00;;;8.50
33267;BMP180;19638;49.080;11.896;2023-01-15T01:33:24;95234.00;;;8.50
33267;BMP180;19638;49.080;11.896;2023-01-15T01:37:29;95231.00;;;8.50
33267;BMP180;19638;49.080;11.896;2023-01-15T01:41:37;95219.00;;;8.50
33267;BMP180;19638;49.080;11.896;2023-01-15T01:45:41;95214.00;;;8.50
33267;BMP180;19638;49.080;11.896;2023-01-15T01:49:46;95218.00;;;8.50
33267;BMP180;19638;49.080;11.896;2023-01-15T01:53:53;95213.00;;;8.60
33267;BMP180;19638;49.080;11.896;2023-01-15T01:57:59;95211.00;;;8.50
33267;BMP180;19638;49.080;11.896;2023-01-15T02:02:06;95198.00;;;8.50
33267;BMP180;19638;49.080;11.896;2023-01-15T02:06:11;95194.00;;;8.50
33267;BMP180;19638;49.080;11.896;2023-01-15T02:10:16;95189.00;;;8.50
33267;BMP180;19638;49.080;11.896;2023-01-15T02:14:24;95182.00;;;8.50
33267;BMP180;19638;49.080;11.896;2023-01-15T02:18:38;95181.00;;;8.40
33267;BMP180;19638;49.080;11.896;2023-01-15T02:22:53;95172.00;;;8.40
33267;BMP180;19638;49.080;11.896;2023-01-15T02:27:09;95165.00;;;8.30
33267;BMP180;19638;49.080;11.896;2023-01-15T02:31:16;95150.00;;;8.20
33267;BMP180;19638;49.080;11.896;2023-01-15T02:35:24;95145.00;;;8.10
33267;BMP180;19638;49.080;11.896;2023-01-15T02:39:30;95139.00;;;8.00
33267;BMP180;19638;49.080;11.896;2023-01-15T02:43:38;95145.00;;;7.90
33267;BMP180;19638;49.080;11.896;2023-01-15T02:47:43;95131.00;;;7.80
33267;BMP180;19638;49.080;11.896;2023-01-15T02:51:50;95123.00;;;7.80
33267;BMP180;19638;49.080;11.896;2023-01-15T02:56:01;95118.00;;;7.70
33267;BMP180;19638;49.080;11.896;2023-01-15T03:00:13;95102.00;;;7.70
33267;BMP180;19638;49.080;11.896;2023-01-15T03:04:23;95094.00;;;7.60
33267;BMP180;19638;49.080;11.896;2023-01-15T03:08:29;95090.00;;;7.60
33267;BMP180;19638;49.080;11.896;2023-01-15T03:12:40;95082.00;;;7.60
33267;BMP180;19638;49.080;11.896;2023-01-15T03:17:06;95077.00;;;7.60
33267;BMP180;19638;49.080;11.896;2023-01-15T03:21:16;95076.00;;;7.60
33267;BMP180;19638;49.080;11.896;2023-01-15T03:25:25;95082.00;;;7.70
33267;BMP180;19638;49.080;11.896;2023-01-15T03:29:32;95072.00;;;7.70
33267;BMP180;19638;49.080;11.896;2023-01-15T03:33:37;95070.00;;;7.70
33267;BMP180;19638;49.080;11.896;2023-01-15T03:37:40;95065.00;;;7.70
33267;BMP180;19638;49.080;11.896;2023-01-15T03:41:51;95059.00;;;7.70
33267;BMP180;19638;49.080;11.896;2023-01-15T03:45:59;95060.00;;;7.70
33267;BMP180;19638;49.080;11.896;2023-01-15T03:50:13;95051.00;;;7.70
33267;BMP180;19638;49.080;11.896;2023-01-15T03:54:23;95041.00;;;7.70
33267;BMP180;19638;49.080;11.896;2023-01-15T03:58:38;95043.00;;;7.60
33267;BMP180;19638;49.080;11.896;2023-01-15T04:02:44;95043.00;;;7.70
33267;BMP180;19638;49.080;11.896;2023-01-15T04:06:51;95049.00;;;7.60
33267;BMP180;19638;49.080;11.896;2023-01-15T04:10:55;95039.00;;;7.70
33267;BMP180;19638;49.080;11.896;2023-01-15T04:14:58;95041.00;;;7.70
33267;BMP180;19638;49.080;11.896;2023-01-15T04:19:06;95040.00;;;7.70
33267;BMP180;19638;49.080;11.896;2023-01-15T04:23:11;95031.00;;;7.80
33267;BMP180;19638;49.080;11.896;2023-01-15T04:27:14;95040.00;;;7.80
33267;BMP180;19638;49.080;11.896;2023-01-15T04:31:24;95043.00;;;7.80
33267;BMP180;19638;49.080;11.896;2023-01-15T04:35:30;95032.00;;;7.90
33267;BMP180;19638;49.080;11.896;2023-01-15T04:39:34;95039.00;;;7.90
33267;BMP180;19638;49.080;11.896;2023-01-15T04:43:38;95033.00;;;7.90
33267;BMP180;19638;49.080;11.896;2023-01-15T04:47:58;95029.00;;;7.90
33267;BMP180;19638;49.080;11.896;2023-01-15T04:52:09;95023.00;;;8.00
33267;BMP180;19638;49.080;11.896;2023-01-15T04:56:16;95018.00;;;8.00
33267;BMP180;19638;49.080;11.896;2023-01-15T05:00:21;95031.00;;;8.00
33267;BMP180;19638;49.080;11.896;2023-01-15T05:04:24;95023.00;;;8.00
33267;BMP180;19638;49.080;11.896;2023-01-15T05:08:27;95023.00;;;8.10
33267;BMP180;19638;49.080;11.896;2023-01-15T05:12:32;95012.00;;;8.10
33267;BMP180;19638;49.080;11.896;2023-01-15T05:16:41;95015.00;;;8.10
33267;BMP180;19638;49.080;11.896;2023-01-15T05:20:44;95011.00;;;8.20
33267;BMP180;19638;49.080;11.896;2023-01-15T05:24:49;94996.00;;;8.20
33267;BMP180;19638;49.080;11.896;2023-01-15T05:28:54;94990.00;;;8.20
33267;BMP180;19638;49.080;11.896;2023-01-15T05:32:59;94988.00;;;8.20
33267;BMP180;19638;49.080;11.896;2023-01-15T05:37:02;94985.00;;;8.20
33267;BMP180;19638;49.080;11.896;2023-01-15T05:41:06;94978.00;;;8.20
33267;BMP180;19638;49.080;11.896;2023-01-15T05:45:34;94963.00;;;8.20
33267;BMP180;19638;49.080;11.896;2023-01-15T05:49:38;94963.00;;;8.20
33267;BMP180;19638;49.080;11.896;2023-01-15T05:53:41;94967.00;;;8.20
33267;BMP180;19638;49.080;11.896;2023-01-15T05:57:44;94947.00;;;8.20
33267;BMP180;19638;49.080;11.896;2023-01-15T06:01:49;94961.00;;;8.20
33267;BMP180;19638;49.080;11.896;2023-01-15T06:05:58;94964.00;;;8.20
33267;BMP180;19638;49.080;11.896;2023-01-15T06:10:08;94970.00;;;8.20
33267;BMP180;19638;49.080;11.896;2023-01-15T06:14:11;94960.00;;;8.20
33267;BMP180;19638;49.080;11.896;2023-01-15T06:18:18;94970.00;;;8.20
33267;BMP180;19638;49.080;11.896;2023-01-15T06:22:25;94963.00;;;8.20
33267;BMP180;19638;49.080;11.896;2023-01-15T06:26:28;94960.00;;;8.20
33267;BMP180;19638;49.080;11.896;2023-01-15T06:30:31;94949.00;;;8.20
33267;BMP180;19638;49.080;11.896;2023-01-15T06:34:36;94955.00;;;8.20
33267;BMP180;19638;49.080;11.896;2023-01-15T06:38:39;94956.00;;;8.20
33267;BMP180;19638;49.080;11.896;2023-01-15T06:42:45;94942.00;;;8.20
33267;BMP180;19638;49.080;11.896;2023-01-15T06:47:13;94936.00;;;8.20
33267;BMP180;19638;49.080;11.896;2023-01-15T06:51:25;94934.00;;;8.20
33267;BMP180;19638;49.080;11.896;2023-01-15T06:55:32;94935.00;;;8.20
33267;BMP180;19638;49.080;11.896;2023-01-15T06:59:35;94927.00;;;8.30
33267;BMP180;19638;49.080;11.896;2023-01-15T07:03:40;94920.00;;;8.30
33267;BMP180;19638;49.080;11.896;2023-01-15T07:07:47;94903.00;;;8.30
33267;BMP180;19638;49.080;11.896;2023-01-15T07:11:52;94905.00;;;8.40
33267;BMP180;19638;49.080;11.896;2023-01-15T07:15:57;94905.00;;;8.40
33267;BMP180;19638;49.080;11.896;2023-01-15T07:20:01;94904.00;;;8.50
33267;BMP180;19638;49.080;11.896;2023-01-15T07:24:08;94912.00;;;8.50
33267;BMP180;19638;49.080;11.896;2023-01-15T07:28:15;94912.00;;;8.60
33267;BMP180;19638;49.080;11.896;2023-01-15T07:32:19;94901.00;;;8.60
33267;BMP180;19638;49.080;11.896;2023-01-15T07:36:22;94891.00;;;8.70
33267;BMP180;19638;49.080;11.896;2023-01-15T07:40:27;94888.00;;;8.80
33267;BMP180;19638;49.080;11.896;2023-01-15T07:44:30;94884.00;;;8.90
33267;BMP180;19638;49.080;11.896;2023-01-15T07:48:50;94882.00;;;9.00
33267;BMP180;19638;49.080;11.896;2023-01-15T07:53:15;94879.00;;;9.10
33267;BMP180;19638;49.080;11.896;2023-01-15T07:57:21;94876.00;;;9.30
33267;BMP180;19638;49.080;11.896;2023-01-15T08:01:25;94884.00;;;9.50
33267;BMP180;19638;49.080;11.896;2023-01-15T08:05:28;94888.00;;;9.70
33267;BMP180;19638;49.080;11.896;2023-01-15T08:09:31;94884.00;;;9.90
33267;BMP180;19638;49.080;11.896;2023-01-15T08:13:36;94897.00;;;10.10
33267;BMP180;19638;49.080;11.896;2023-01-15T08:17:56;94896.00;;;10.40
33267;BMP180;19638;49.080;11.896;2023-01-15T08:22:02;94878.00;;;10.80
33267;BMP180;19638;49.080;11.896;2023-01-15T08:26:08;94889.00;;;11.10
33267;BMP180;19638;49.080;11.896;2023-01-15T08:30:15;94887.00;;;11.30
33267;BMP180;19638;49.080;11.896;2023-01-15T08:34:20;94906.00;;;11.40
33267;BMP180;19638;49.080;11.896;2023-01-15T08:38:27;94903.00;;;11.50
33267;BMP180;19638;49.080;11.896;2023-01-15T08:42:30;94893.00;;;11.70
33267;BMP180;19638;49.080;11.896;2023-01-15T08:46:39;94893.00;;;11.70
33267;BMP180;19638;49.080;11.896;2023-01-15T08:50:42;94914.00;;;11.80
33267;BMP180;19638;49.080;11.896;2023-01-15T08:54:45;94935.00;;;11.80
33267;BMP180;19638;49.080;11.896;2023-01-15T08:58:50;94933.00;;;11.80
33267;BMP180;19638;49.080;11.896;2023-01-15T09:02:54;94930.00;;;11.70
33267;BMP180;19638;49.080;11.896;2023-01-15T09:06:57;94968.00;;;11.60
33267;BMP180;19638;49.080;11.896;2023-01-15T09:11:04;94976.00;;;11.20
33267;BMP180;19638;49.080;11.896;2023-01-15T09:15:10;94986.00;;;10.90
33267;BMP180;19638;49.080;11.896;2023-01-15T09:19:16;94990.00;;;10.70
33267;BMP180;19638;49.080;11.896;2023-01-15T09:23:21;95003.00;;;10.50
33267;BMP180;19638;49.080;11.896;2023-01-15T09:27:27;95022.00;;;10.30
33267;BMP180;19638;49.080;11.896;2023-01-15T09:31:31;95019.00;;;9.90
33267;BMP180;19638;49.080;11.896;2023-01-15T09:35:36;95046.00;;;9.60
33267;BMP180;19638;49.080;11.896;2023-01-15T09:39:39;95044.00;;;9.40
33267;BMP180;19638;49.080;11.896;2023-01-15T09:43:48;95054.00;;;9.10
33267;BMP180;19638;49.080;11.896;2023-01-15T09:48:05;95048.00;;;9.00
33267;BMP180;19638;49.080;11.896;2023-01-15T09:52:24;95069.00;;;8.90
33267;BMP180;19638;49.080;11.896;2023-01-15T09:56:32;95059.00;;;8.80
33267;BMP180;19638;49.080;11.896;2023-01-15T10:00:39;95059.00;;;8.70
33267;BMP180;19638;49.080;11.896;2023-01-15T10:04:46;95097.00;;;8.60
33267;BMP180;19638;49.080;11.896;2023-01-15T10:08:55;95095.00;;;8.50
33267;BMP180;19638;49.080;11.896;2023-01-15T10:13:12;95093.00;;;8.50
33267;BMP180;19638;49.080;11.896;2023-01-15T10:17:26;95107.00;;;8.40
33267;BMP180;19638;49.080;11.896;2023-01-15T10:21:36;95119.00;;;8.40
33267;BMP180;19638;49.080;11.896;2023-01-15T10:25:47;95121.00;;;8.40
33267;BMP180;19638;49.080;11.896;2023-01-15T10:29:59;95138.00;;;8.40
33267;BMP180;19638;49.080;11.896;2023-01-15T10:34:20;95142.00;;;8.40
33267;BMP180;19638;49.080;11.896;2023-01-15T10:38:35;95135.00;;;8.40
33267;BMP180;19638;49.080;11.896;2023-01-15T10:42:55;95144.00;;;8.30
33267;BMP180;19638;49.080;11.896;2023-01-15T10:47:06;95149.00;;;8.20
33267;BMP180;19638;49.080;11.896;2023-01-15T10:51:23;95159.00;;;8.10
33267;BMP180;19638;49.080;11.896;2023-01-15T10:55:29;95166.00;;;8.10
33267;BMP180;19638;49.080;11.896;2023-01-15T10:59:44;95160.00;;;8.00
33267;BMP180;19638;49.080;11.896;2023-01-15T11:03:51;95159.00;;;8.00
33267;BMP180;19638;49.080;11.896;2023-01-15T11:07:56;95175.00;;;8.00
33267;BMP180;19638;49.080;11.896;2023-01-15T11:12:27;95176.00;;;8.00
33267;BMP180;19638;49.080;11.896;2023-01-15T11:16:50;95177.00;;;7.90
33267;BMP180;19638;49.080;11.896;2023-01-15T11:21:13;95179.00;;;7.80
33267;BMP180;19638;49.080;11.896;2023-01-15T11:25:26;95196.00;;;7.70
33267;BMP180;19638;49.080;11.896;2023-01-15T11:29:31;95203.00;;;7.60
33267;BMP180;19638;49.080;11.896;2023-01-15T11:33:37;95181.00;;;7.50
33267;BMP180;19638;49.080;11.896;2023-01-15T11:37:40;95208.00;;;7.40
33267;BMP180;19638;49.080;11.896;2023-01-15T11:41:49;95196.00;;;7.30
33267;BMP180;19638;49.080;11.896;2023-01-15T11:46:25;95196.00;;;7.20
33267;BMP180;19638;49.080;11.896;2023-01-15T11:50:52;95202.00;;;7.20
33267;BMP180;19638;49.080;11.896;2023-01-15T11:54:58;95216.00;;;7.20
33267;BMP180;19638;49.080;11.896;2023-01-15T11:59:09;95214.00;;;7.20
33267;BMP180;19638;49.080;11.896;2023-01-15T12:03:16;95204.00;;;7.30
33267;BMP180;19638;49.080;11.896;2023-01-15T12:07:22;95203.00;;;7.40
33267;BMP180;19638;49.080;11.896;2023-01-15T12:11:49;95210.00;;;7.60
33267;BMP180;19638;49.080;11.896;2023-01-15T12:16:02;95220.00;;;7.70
33267;BMP180;19638;49.080;11.896;2023-01-15T12:20:15;95244.00;;;7.90
33267;BMP180;19638;49.080;11.896;2023-01-15T12:29:17;95262.00;;;7.80
33267;BMP180;19638;49.080;11.896;2023-01-15T12:33:36;95261.00;;;7.70
33267;BMP180;19638;49.080;11.896;2023-01-15T12:37:44;95255.00;;;7.70
33267;BMP180;19638;49.080;11.896;2023-01-15T12:41:53;95252.00;;;7.70
33267;BMP180;19638;49.080;11.896;2023-01-15T12:46:20;95275.00;;;7.70
33267;BMP180;19638;49.080;11.896;2023-01-15T12:50:38;95298.00;;;7.60
33267;BMP180;19638;49.080;11.896;2023-01-15T12:54:52;95313.00;;;7.50
33267;BMP180;19638;49.080;11.896;2023-01-15T12:59:02;95319.00;;;7.50
33267;BMP180;19638;49.080;11.896;2023-01-15T13:03:20;95335.00;;;7.50
33267;BMP180;19638;49.080;11.896;2023-01-15T13:07:30;95337.00;;;7.40
33267;BMP180;19638;49.080;11.896;2023-01-15T13:11:35;95351.00;;;7.30
33267;BMP180;19638;49.080;11.896;2023-01-15T13:15:43;95345.00;;;7.10
33267;BMP180;19638;49.080;11.896;2023-01-15T13:20:11;95345.00;;;7.00
33267;BMP180;19638;49.080;11.896;2023-01-15T13:29:17;95361.00;;;6.90
33267;BMP180;19638;49.080;11.896;2023-01-15T13:33:31;95366.00;;;7.00
33267;BMP180;19638;49.080;11.896;2023-01-15T13:37:41;95369.00;;;7.10
33267;BMP180;19638;49.080;11.896;2023-01-15T13:41:47;95368.00;;;7.10
33267;BMP180;19638;49.080;11.896;2023-01-15T13:46:11;95386.00;;;7.10
33267;BMP180;19638;49.080;11.896;2023-01-15T13:50:16;95403.00;;;7.00
33267;BMP180;19638;49.080;11.896;2023-01-15T13:54:26;95393.00;;;7.00
33267;BMP180;19638;49.080;11.896;2023-01-15T13:58:30;95430.00;;;6.90
33267;BMP180;19638;49.080;11.896;2023-01-15T14:02:36;95423.00;;;6.80
33267;BMP180;19638;49.080;11.896;2023-01-15T14:06:42;95434.00;;;6.80
33267;BMP180;19638;49.080;11.896;2023-01-15T14:10:50;95440.00;;;6.70
33267;BMP180;19638;49.080;11.896;2023-01-15T14:15:07;95453.00;;;6.60
33267;BMP180;19638;49.080;11.896;2023-01-15T14:19:41;95445.00;;;6.50
33267;BMP180;19638;49.080;11.896;2023-01-15T14:24:11;95458.00;;;6.40
33267;BMP180;19638;49.080;11.896;2023-01-15T14:28:37;95442.00;;;6.40
33267;BMP180;19638;49.080;11.896;2023-01-15T14:32:55;95463.00;;;6.40
33267;BMP180;19638;49.080;11.896;2023-01-15T14:37:01;95459.00;;;6.30
33267;BMP180;19638;49.080;11.896;2023-01-15T14:41:08;95469.00;;;6.20
33267;BMP180;19638;49.080;11.896;2023-01-15T14:45:24;95480.00;;;6.10
33267;BMP180;19638;49.080;11.896;2023-01-15T14:49:40;95494.00;;;6.10
33267;BMP180;19638;49.080;11.896;2023-01-15T14:53:48;95487.00;;;6.00
33267;BMP180;19638;49.080;11.896;2023-01-15T14:57:58;95493.00;;;6.00
33267;BMP180;19638;49.080;11.896;2023-01-15T15:02:13;95490.00;;;6.00
33267;BMP180;19638;49.080;11.896;2023-01-15T15:06:17;95499.00;;;6.00
33267;BMP180;19638;49.080;11.896;2023-01-15T15:10:24;95496.00;;;5.90
33267;BMP180;19638;49.080;11.896;2023-01-15T15:14:35;95495.00;;;5.90
33267;BMP180;19638;49.080;11.896;2023-01-15T15:18:53;95492.00;;;5.80
33267;BMP180;19638;49.080;11.896;2023-01-15T15:23:04;95501.00;;;5.70
33267;BMP180;19638;49.080;11.896;2023-01-15T15:27:17;95519.00;;;5.70
33267;BMP180;19638;49.080;11.896;2023-01-15T15:31:21;95518.00;;;5.70
33267;BMP180;19638;49.080;11.896;2023-01-15T15:35:29;95521.00;;;5.60
33267;BMP180;19638;49.080;11.896;2023-01-15T15:39:40;95535.00;;;5.60
33267;BMP180;19638;49.080;11.896;2023-01-15T15:43:48;95531.00;;;5.50
33267;BMP180;19638;49.080;11.896;2023-01-15T15:48:15;95528.00;;;5.50
33267;BMP180;19638;49.080;11.896;2023-01-15T15:52:42;95515.00;;;5.40
33267;BMP180;19638;49.080;11.896;2023-01-15T15:56:51;95524.00;;;5.30
33267;BMP180;19638;49.080;11.896;2023-01-15T16:01:04;95536.00;;;5.20
33267;BMP180;19638;49.080;11.896;2023-01-15T16:05:20;95534.00;;;5.20
33267;BMP180;19638;49.080;11.896;2023-01-15T16:09:25;95526.00;;;5.20
33267;BMP180;19638;49.080;11.896;2023-01-15T16:13:31;95537.00;;;5.20
33267;BMP180;19638;49.080;11.896;2023-01-15T16:17:35;95548.00;;;5.10
33267;BMP180;19638;49.080;11.896;2023-01-15T16:21:41;95542.00;;;5.10
33267;BMP180;19638;49.080;11.896;2023-01-15T16:25:55;95545.00;;;5.00
33267;BMP180;19638;49.080;11.896;2023-01-15T16:30:03;95548.00;;;5.00
33267;BMP180;19638;49.080;11.896;2023-01-15T16:34:16;95553.00;;;5.00
33267;BMP180;19638;49.080;11.896;2023-01-15T16:38:20;95561.00;;;5.00
33267;BMP180;19638;49.080;11.896;2023-01-15T16:42:31;95562.00;;;5.10
33267;BMP180;19638;49.080;11.896;2023-01-15T16:46:38;95563.00;;;5.10
33267;BMP180;19638;49.080;11.896;2023-01-15T16:50:50;95581.00;;;5.10
33267;BMP180;19638;49.080;11.896;2023-01-15T16:54:55;95584.00;;;5.10
33267;BMP180;19638;49.080;11.896;2023-01-15T16:59:05;95578.00;;;5.00
33267;BMP180;19638;49.080;11.896;2023-01-15T17:03:18;95585.00;;;4.90
33267;BMP180;19638;49.080;11.896;2023-01-15T17:07:30;95571.00;;;4.80
33267;BMP180;19638;49.080;11.896;2023-01-15T17:11:37;95564.00;;;4.80
33267;BMP180;19638;49.080;11.896;2023-01-15T17:15:45;95575.00;;;4.70
33267;BMP180;19638;49.080;11.896;2023-01-15T17:19:49;95575.00;;;4.70
33267;BMP180;19638;49.080;11.896;2023-01-15T17:23:53;95581.00;;;4.60
33267;BMP180;19638;49.080;11.896;2023-01-15T17:27:57;95591.00;;;4.50
33267;BMP180;19638;49.080;11.896;2023-01-15T17:32:02;95587.00;;;4.50
33267;BMP180;19638;49.080;11.896;2023-01-15T17:36:07;95580.00;;;4.40
33267;BMP180;19638;49.080;11.896;2023-01-15T17:40:11;95568.00;;;4.40
33267;BMP180;19638;49.080;11.896;2023-01-15T17:44:14;95567.00;;;4.30
33267;BMP180;19638;49.080;11.896;2023-01-15T17:48:21;95579.00;;;4.30
33267;BMP180;19638;49.080;11.896;2023-01-15T17:52:25;95569.00;;;4.30
33267;BMP180;19638;49.080;11.896;2023-01-15T17:56:28;95566.00;;;4.30
33267;BMP180;19638;49.080;11.896;2023-01-15T18:00:52;95573.00;;;4.20
33267;BMP180;19638;49.080;11.896;2023-01-15T18:05:14;95578.00;;;4.20
33267;BMP180;19638;49.080;11.896;2023-01-15T18:09:37;95585.00;;;4.10
33267;BMP180;19638;49.080;11.896;2023-01-15T18:13:40;95583.00;;;4.00
33267;BMP180;19638;49.080;11.896;2023-01-15T18:17:45;95567.00;;;3.90
33267;BMP180;19638;49.080;11.896;2023-01-15T18:21:50;95565.00;;;3.80
33267;BMP180;19638;49.080;11.896;2023-01-15T18:25:54;95564.00;;;3.70
33267;BMP180;19638;49.080;11.896;2023-01-15T18:29:58;95558.00;;;3.60
33267;BMP180;19638;49.080;11.896;2023-01-15T18:34:01;95554.00;;;3.60
33267;BMP180;19638;49.080;11.896;2023-01-15T18:38:07;95550.00;;;3.60
33267;BMP180;19638;49.080;11.896;2023-01-15T18:42:10;95554.00;;;3.50
33267;BMP180;19638;49.080;11.896;2023-01-15T18:46:31;95565.00;;;3.40
33267;BMP180;19638;49.080;11.896;2023-01-15T18:50:51;95564.00;;;3.50
33267;BMP180;19638;49.080;11.896;2023-01-15T18:54:57;95548.00;;;3.50
33267;BMP180;19638;49.080;11.896;2023-01-15T18:59:05;95542.00;;;3.50
33267;BMP180;19638;49.080;11.896;2023-01-15T19:03:12;95556.00;;;3.50
33267;BMP180;19638;49.080;11.896;2023-01-15T19:07:15;95550.00;;;3.60
33267;BMP180;19638;49.080;11.896;2023-01-15T19:11:21;95539.00;;;3.70
33267;BMP180;19638;49.080;11.896;2023-01-15T19:15:26;95535.00;;;3.80
33267;BMP180;19638;49.080;11.896;2023-01-15T19:19:46;95525.00;;;3.70
33267;BMP180;19638;49.080;11.896;2023-01-15T19:23:50;95530.00;;;3.80
33267;BMP180;19638;49.080;11.896;2023-01-15T19:27:55;95528.00;;;3.80
33267;BMP180;19638;49.080;11.896;2023-01-15T19:31:58;95536.00;;;3.90
33267;BMP180;19638;49.080;11.896;2023-01-15T19:36:05;95535.00;;;3.90
33267;BMP180;19638;49.080;11.896;2023-01-15T19:40:13;95529.00;;;4.00
33267;BMP180;19638;49.080;11.896;2023-01-15T19:44:20;95533.00;;;4.10
33267;BMP180;19638;49.080;11.896;2023-01-15T19:48:45;95539.00;;;4.10
33267;BMP180;19638;49.080;11.896;2023-01-15T19:53:09;95516.00;;;4.20
33267;BMP180;19638;49.080;11.896;2023-01-15T19:57:19;95526.00;;;4.20
33267;BMP180;19638;49.080;11.896;2023-01-15T20:01:26;95512.00;;;4.10
33267;BMP180;19638;49.080;11.896;2023-01-15T20:05:30;95521.00;;;4.00
33267;BMP180;19638;49.080;11.896;2023-01-15T20:09:33;95523.00;;;4.00
33267;BMP180;19638;49.080;11.896;2023-01-15T20:13:37;95510.00;;;3.90
33267;BMP180;19638;49.080;11.896;2023-01-15T20:17:58;95506.00;;;3.90
33267;BMP180;19638;49.080;11.896;2023-01-15T20:22:02;95511.00;;;3.80
33267;BMP180;19638;49.080;11.896;2023-01-15T20:26:07;95503.00;;;3.80
33267;BMP180;19638;49.080;11.896;2023-01-15T20:30:14;95498.00;;;3.70
33267;BMP180;19638;49.080;11.896;2023-01-15T20:34:21;95499.00;;;3.70
33267;BMP180;19638;49.080;11.896;2023-01-15T20:38:24;95496.00;;;3.60
33267;BMP180;19638;49.080;11.896;2023-01-15T20:42:28;95490.00;;;3.60
33267;BMP180;19638;49.080;11.896;2023-01-15T20:46:49;95484.00;;;3.60
33267;BMP180;19638;49.080;11.896;2023-01-15T20:50:53;95478.00;;;3.50
33267;BMP180;19638;49.080;11.896;2023-01-15T20:55:04;95481.00;;;3.50
33267;BMP180;19638;49.080;11.896;2023-01-15T20:59:07;95480.00;;;3.40
33267;BMP180;19638;49.080;11.896;2023-01-15T21:03:11;95481.00;;;3.40
33267;BMP180;19638;49.080;11.896;2023-01-15T21:07:18;95477.00;;;3.40
33267;BMP180;19638;49.080;11.896;2023-01-15T21:11:24;95476.00;;;3.40
33267;BMP180;19638;49.080;11.896;2023-01-15T21:15:34;95470.00;;;3.30
33267;BMP180;19638;49.080;11.896;2023-01-15T21:19:37;95464.00;;;3.30
33267;BMP180;19638;49.080;11.896;2023-01-15T21:23:44;95463.00;;;3.30
33267;BMP180;19638;49.080;11.896;2023-01-15T21:27:52;95469.00;;;3.30
33267;BMP180;19638;49.080;11.896;2023-01-15T21:31:59;95462.00;;;3.30
33267;BMP180;19638;49.080;11.896;2023-01-15T21:36:04;95442.00;;;3.40
33267;BMP180;19638;49.080;11.896;2023-01-15T21:40:18;95442.00;;;3.30
33267;BMP180;19638;49.080;11.896;2023-01-15T21:44:21;95449.00;;;3.40
33267;BMP180;19638;49.080;11.896;2023-01-15T21:48:38;95439.00;;;3.40
33267;BMP180;19638;49.080;11.896;2023-01-15T21:52:42;95443.00;;;3.40
33267;BMP180;19638;49.080;11.896;2023-01-15T21:56:47;95432.00;;;3.40
33267;BMP180;19638;49.080;11.896;2023-01-15T22:00:50;95429.00;;;3.40
33267;BMP180;19638;49.080;11.896;2023-01-15T22:04:54;95429.00;;;3.40
33267;BMP180;19638;49.080;11.896;2023-01-15T22:08:57;95420.00;;;3.40
33267;BMP180;19638;49.080;11.896;2023-01-15T22:13:02;95415.00;;;3.30
33267;BMP180;19638;49.080;11.896;2023-01-15T22:17:09;95418.00;;;3.30
33267;BMP180;19638;49.080;11.896;2023-01-15T22:21:12;95399.00;;;3.30
33267;BMP180;19638;49.080;11.896;2023-01-15T22:25:18;95397.00;;;3.30
33267;BMP180;19638;49.080;11.896;2023-01-15T22:29:25;95392.00;;;3.20
33267;BMP180;19638;49.080;11.896;2023-01-15T22:33:31;95389.00;;;3.30
33267;BMP180;19638;49.080;11.896;2023-01-15T22:37:34;95378.00;;;3.30
33267;BMP180;19638;49.080;11.896;2023-01-15T22:41:37;95365.00;;;3.30
33267;BMP180;19638;49.080;11.896;2023-01-15T22:46:08;95364.00;;;3.30
33267;BMP180;19638;49.080;11.896;2023-01-15T22:50:15;95352.00;;;3.30
33267;BMP180;19638;49.080;11.896;2023-01-15T22:54:20;95347.00;;;3.30
33267;BMP180;19638;49.080;11.896;2023-01-15T22:58:27;95331.00;;;3.30
33267;BMP180;19638;49.080;11.896;2023-01-15T23:02:34;95333.00;;;3.20
33267;BMP180;19638;49.080;11.896;2023-01-15T23:06:55;95328.00;;;3.20
33267;BMP180;19638;49.080;11.896;2023-01-15T23:10:59;95321.00;;;3.20
33267;BMP180;19638;49.080;11.896;2023-01-15T23:15:03;95302.00;;;3.20
33267;BMP180;19638;49.080;11.896;2023-01-15T23:19:07;95302.00;;;3.20
33267;BMP180;19638;49.080;11.896;2023-01-15T23:23:13;95278.00;;;3.20
33267;BMP180;19638;49.080;11.896;2023-01-15T23:27:17;95275.00;;;3.20
33267;BMP180;19638;49.080;11.896;2023-01-15T23:31:24;95275.00;;;3.20
33267;BMP180;19638;49.080;11.896;2023-01-15T23:35:34;95261.00;;;3.20
33267;BMP180;19638;49.080;11.896;2023-01-15T23:39:37;95260.00;;;3.10
33267;BMP180;19638;49.080;11.896;2023-01-15T23:43:43;95258.00;;;3.10
33267;BMP180;19638;49.080;11.896;2023-01-15T23:48:04;95245.00;;;3.10
33267;BMP180;19638;49.080;11.896;2023-01-15T23:52:09;95239.00;;;3.10
33267;BMP180;19638;49.080;11.896;2023-01-15T23:56:12;95233.00;;;3.10
